Time;durP1;ratioP1;P1;durP2;ratioP2;P2;SDS_P1;SDS_P2;PMS_P1;PMS_P2;Temp;Humidity;BMP_temperature;BMP_pressure;BME280_temperature;BME280_humidity;BME280_pressure;Samples;Min_cycle;Max_cycle;Signal;HPM_P1;HPM_P2
2023/03/29 00:01:35;;;;;;;;;5.00;4.00;;;;;9.72;61.69;101338.41;5080730;28;46312;-64
2023/03/29 00:04:02;;;;;;;;;4.25;4.00;;;;;9.77;60.36;101348.88;5080202;28;45320;-64
2023/03/29 00:06:31;;;;;;;;;7.00;4.67;;;;;9.73;61.39;101334.91;5080472;28;45336;-64
2023/03/29 00:08:57;;;;;;;;;5.25;5.25;;;;;9.67;61.08;101320.94;5080395;28;45406;-64
2023/03/29 00:11:24;;;;;;;;;5.00;5.00;;;;;9.73;61.00;101324.38;5079974;28;46411;-64
2023/03/29 00:13:50;;;;;;;;;4.00;4.00;;;;;9.68;61.53;101314.81;5079946;28;45725;-63
2023/03/29 00:16:16;;;;;;;;;6.00;5.50;;;;;9.76;61.38;101323.50;5080243;28;45285;-64
2023/03/29 00:18:42;;;;;;;;;5.67;4.00;;;;;9.68;61.68;101305.16;5080271;28;45353;-64
2023/03/29 00:21:07;;;;;;;;;8.25;5.25;;;;;9.67;62.29;101298.16;5079867;28;46420;-64
2023/03/29 00:23:32;;;;;;;;;5.25;4.50;;;;;9.72;61.29;101309.50;5080035;28;45253;-64
2023/03/29 00:25:58;;;;;;;;;5.67;5.67;;;;;9.76;62.10;101316.47;5080193;28;45471;-64
2023/03/29 00:28:23;;;;;;;;;6.00;6.00;;;;;9.75;62.14;101309.44;5080163;28;45522;-64
2023/03/29 00:30:49;;;;;;;;;4.00;4.00;;;;;9.86;61.92;101329.50;5094684;27;45710;-64
2023/03/29 00:33:17;;;;;;;;;9.00;5.25;;;;;9.86;61.44;101319.00;5079987;28;45391;-64
2023/03/29 00:35:43;;;;;;;;;5.00;5.00;;;;;9.78;61.70;101305.06;5079814;28;45300;-64
2023/03/29 00:38:09;;;;;;;;;10.00;5.00;;;;;9.84;61.91;101318.16;5080209;28;45458;-64
2023/03/29 00:40:41;;;;;;;;;6.75;6.75;;;;;9.80;61.65;101312.03;5079536;28;46506;-64
2023/03/29 00:43:10;;;;;;;;;8.67;6.33;;;;;9.82;62.67;101317.31;5079028;28;45399;-63
2023/03/29 00:45:35;;;;;;;;;7.75;5.50;;;;;9.75;62.65;101298.94;5079809;28;45467;-63
2023/03/29 00:48:07;;;;;;;;;4.75;4.75;;;;;9.70;62.39;101289.34;5080116;28;45135;-64
2023/03/29 00:50:40;;;;;;;;;6.50;4.75;;;;;9.71;62.57;101309.50;5079323;28;45510;-63
2023/03/29 00:53:13;;;;;;;;;5.67;5.33;;;;;9.67;62.95;101313.06;5079494;28;45278;-63
2023/03/29 00:55:44;;;;;;;;;5.00;5.00;;;;;9.60;63.17;101309.63;5079678;28;45317;-64
2023/03/29 00:58:14;;;;;;;;;6.50;6.50;;;;;9.51;63.75;101307.97;5079487;28;45550;-64
2023/03/29 01:00:51;;;;;;;;;5.50;3.75;;;;;9.20;64.05;101262.69;5079231;28;46479;-64
2023/03/29 01:03:26;;;;;;;;;12.00;6.00;;;;;9.49;63.47;101300.97;5079409;28;45379;-64
2023/03/29 01:05:59;;;;;;;;;5.50;5.25;;;;;9.52;64.09;101312.31;5079481;28;45450;-64
2023/03/29 01:08:32;;;;;;;;;5.75;4.75;;;;;9.43;63.78;101299.25;5079459;28;45495;-64
2023/03/29 01:11:23;;;;;;;;;6.00;6.00;;;;;9.43;63.85;101311.53;5079049;28;46555;-64
2023/03/29 01:13:56;;;;;;;;;6.75;4.50;;;;;9.41;64.72;101312.41;5079150;28;45479;-64
2023/03/29 01:16:24;;;;;;;;;8.00;7.00;;;;;9.33;64.79;101297.59;5079368;28;45409;-64
2023/03/29 01:18:51;;;;;;;;;7.00;7.00;;;;;9.35;65.16;101298.44;5079522;28;45316;-64
2023/03/29 01:21:19;;;;;;;;;5.25;4.75;;;;;9.35;64.73;101298.44;5078801;28;46247;-64
2023/03/29 01:24:05;;;;;;;;;6.50;6.00;;;;;9.32;64.58;101301.97;5079189;28;45272;-64
2023/03/29 01:27:15;;;;;;;;;7.00;6.00;;;;;9.26;64.70;101288.88;5079275;28;45384;-64
2023/03/29 01:29:46;;;;;;;;;11.00;6.00;;;;;9.20;65.45;101296.84;5056562;28;45429;-64
2023/03/29 01:32:15;;;;;;;;;5.67;5.67;;;;;9.20;65.95;101295.06;5056543;28;45715;-63
2023/03/29 01:34:55;;;;;;;;;6.75;5.00;;;;;9.20;65.30;101296.84;5056470;28;45445;-64
2023/03/29 01:37:37;;;;;;;;;4.00;4.00;;;;;9.19;65.59;101292.44;5056532;28;45427;-63
2023/03/29 01:40:05;;;;;;;;;9.00;5.00;;;;;9.22;66.51;101289.78;5056330;28;45488;-64
2023/03/29 01:43:02;;;;;;;;;8.00;8.00;;;;;9.26;65.58;101296.78;5055963;28;47139;-64
2023/03/29 01:45:36;;;;;;;;;6.00;5.00;;;;;9.24;65.73;101290.66;5055346;28;45421;-65
2023/03/29 01:48:17;;;;;;;;;5.00;5.00;;;;;9.24;65.88;101290.66;5056527;28;45459;-64
2023/03/29 01:50:53;;;;;;;;;6.33;5.33;;;;;9.30;66.38;101292.38;5056437;28;45435;-65
2023/03/29 01:53:41;;;;;;;;;7.25;5.75;;;;;9.31;66.86;101286.22;5055411;28;47784;-64
2023/03/29 01:56:12;;;;;;;;;9.67;6.00;;;;;9.35;66.53;101283.56;5056176;28;45381;-65
2023/03/29 01:58:43;;;;;;;;;6.00;6.00;;;;;9.38;66.92;101278.28;5055958;28;45438;-65
2023/03/29 02:01:12;;;;;;;;;6.00;6.00;;;;;9.39;67.21;101277.38;5057984;28;45388;-65
2023/03/29 02:03:43;;;;;;;;;6.00;6.00;;;;;9.37;67.00;101258.13;5058232;28;46186;-64
2023/03/29 02:06:15;;;;;;;;;10.33;6.00;;;;;9.48;66.65;101271.16;5058013;28;45643;-62
2023/03/29 02:08:43;;;;;;;;;7.33;5.67;;;;;9.48;67.78;101265.03;5057966;28;45404;-62
2023/03/29 02:11:09;;;;;;;;;10.33;7.33;;;;;9.56;67.12;101263.22;5036724;28;45812;-62
2023/03/29 02:13:35;;;;;;;;;8.67;8.00;;;;;9.58;66.73;101257.06;5037643;28;46492;-62
2023/03/29 02:16:07;;;;;;;;;9.00;7.00;;;;;9.41;66.88;101222.19;5053440;28;45898;-63
2023/03/29 02:18:34;;;;;;;;;10.33;6.67;;;;;9.50;67.06;101239.63;5037773;28;45366;-62
2023/03/29 02:21:01;;;;;;;;;10.00;7.00;;;;;9.46;67.41;101236.16;5037887;28;45258;-62
2023/03/29 02:23:37;;;;;;;;;8.50;7.00;;;;;9.39;68.01;101231.84;5037666;28;46852;-62
2023/03/29 02:26:05;;;;;;;;;11.00;5.67;;;;;9.32;68.05;101231.00;5037568;28;45518;-62
2023/03/29 02:28:32;;;;;;;;;9.00;8.00;;;;;9.27;68.72;101234.59;5037721;28;45477;-62
2023/03/29 02:31:07;;;;;;;;;8.67;8.33;;;;;9.28;68.78;101236.31;5037796;28;45470;-62
2023/03/29 02:33:45;;;;;;;;;6.67;6.67;;;;;9.28;68.59;101231.97;5037391;28;46507;-62
2023/03/29 02:36:22;;;;;;;;;10.67;10.67;;;;;9.22;69.07;101226.72;5037524;28;45405;-62
2023/03/29 02:38:48;;;;;;;;;5.67;4.00;;;;;9.20;68.49;101218.88;5037567;28;45242;-62
2023/03/29 02:41:15;;;;;;;;;9.00;4.33;;;;;9.23;68.97;101234.59;5037834;28;45304;-62
2023/03/29 02:43:42;;;;;;;;;7.00;6.33;;;;;9.24;68.74;101236.34;5037130;28;46408;-62
2023/03/29 02:46:09;;;;;;;;;11.00;9.00;;;;;9.21;69.41;101220.63;5037468;28;45313;-62
2023/03/29 02:48:36;;;;;;;;;9.33;5.67;;;;;9.27;68.95;101213.56;5037428;28;45380;-62
2023/03/29 02:51:14;;;;;;;;;7.67;6.67;;;;;9.31;69.45;101221.41;5037565;28;45447;-62
2023/03/29 02:53:50;;;;;;;;;7.00;5.00;;;;;9.38;69.08;101217.84;5036929;28;46717;-62
2023/03/29 02:56:17;;;;;;;;;10.33;6.33;;;;;9.26;69.06;101185.56;5041625;28;45469;-62
2023/03/29 02:58:42;;;;;;;;;7.67;5.33;;;;;9.52;68.89;101220.31;5048553;28;45474;-64
2023/03/29 03:01:09;;;;;;;;;8.00;6.00;;;;;9.49;67.97;101211.59;5057395;28;45669;-64
2023/03/29 03:03:34;;;;;;;;;10.67;8.00;;;;;9.62;69.58;101230.75;5057240;28;46082;-65
2023/03/29 03:06:00;;;;;;;;;7.33;6.00;;;;;9.61;68.11;101221.97;5057031;28;45344;-64
2023/03/29 03:08:25;;;;;;;;;10.67;8.00;;;;;9.65;68.94;101225.44;5057353;28;45418;-65
2023/03/29 03:10:51;;;;;;;;;10.33;7.33;;;;;9.67;68.57;101218.38;5074183;28;45314;-65
2023/03/29 03:13:16;;;;;;;;;8.33;6.67;;;;;9.75;68.05;101224.44;5077304;28;45396;-65
2023/03/29 03:15:42;;;;;;;;;11.67;11.00;;;;;9.72;68.98;101219.22;5077471;28;45225;-65
2023/03/29 03:18:09;;;;;;;;;8.00;8.00;;;;;9.78;69.05;101220.91;5077548;27;45416;-65
2023/03/29 03:20:35;;;;;;;;;8.33;7.00;;;;;9.81;68.13;101219.09;5077590;28;45331;-65
2023/03/29 03:23:02;;;;;;;;;10.33;8.00;;;;;9.82;68.83;101212.09;5077323;28;46570;-65
2023/03/29 03:25:27;;;;;;;;;9.33;8.00;;;;;9.82;68.84;101201.59;5077156;28;45305;-65
2023/03/29 03:27:53;;;;;;;;;11.67;7.00;;;;;9.85;68.91;101206.81;5077542;28;45364;-65
2023/03/29 03:30:19;;;;;;;;;9.00;9.00;;;;;9.79;68.41;101185.81;5077312;28;45926;-65
2023/03/29 03:32:45;;;;;;;;;10.67;8.00;;;;;9.87;68.92;101197.13;5076891;27;45762;-65
2023/03/29 03:35:11;;;;;;;;;11.00;8.67;;;;;9.87;68.91;101200.59;5077096;28;45431;-65
2023/03/29 03:37:38;;;;;;;;;12.00;8.00;;;;;9.86;68.78;101198.91;5077337;28;45381;-65
2023/03/29 03:40:10;;;;;;;;;8.33;7.33;;;;;9.92;69.27;101213.72;5077558;28;45250;-65
2023/03/29 03:42:37;;;;;;;;;8.33;7.00;;;;;9.92;69.04;101203.22;5076960;28;45693;-65
2023/03/29 03:45:03;;;;;;;;;9.33;9.33;;;;;9.86;68.53;101184.84;5076719;28;45274;-65
2023/03/29 03:47:29;;;;;;;;;10.33;10.00;;;;;9.76;68.94;101174.47;5077349;28;45334;-65
2023/03/29 03:49:55;;;;;;;;;13.00;8.00;;;;;9.88;68.91;101189.22;5077208;27;45492;-65
2023/03/29 03:52:20;;;;;;;;;11.67;10.67;;;;;9.90;69.28;101194.44;5076730;28;46170;-65
2023/03/29 03:54:47;;;;;;;;;9.33;7.67;;;;;9.88;69.83;101189.22;5076938;28;45467;-65
2023/03/29 03:57:12;;;;;;;;;11.67;8.67;;;;;9.90;69.80;101199.72;5076951;28;45383;-65
2023/03/29 03:59:38;;;;;;;;;10.00;7.00;;;;;9.93;69.50;101187.41;5058946;28;45491;-65
2023/03/29 04:02:03;;;;;;;;;9.33;9.00;;;;;9.89;69.85;101182.19;5076675;28;46220;-65
2023/03/29 04:04:29;;;;;;;;;7.67;6.67;;;;;9.83;70.59;101175.25;5076654;28;45375;-65
2023/03/29 04:07:01;;;;;;;;;8.33;7.33;;;;;9.66;71.02;101148.31;5077073;28;45270;-65
2023/03/29 04:09:30;;;;;;;;;6.00;6.00;;;;;9.69;70.85;101157.03;5076790;28;45466;-65
2023/03/29 04:11:56;;;;;;;;;9.00;9.00;;;;;9.95;70.41;101187.38;5076438;28;47158;-65
2023/03/29 04:14:21;;;;;;;;;11.00;10.00;;;;;9.91;69.76;101190.94;5076449;28;45313;-65
2023/03/29 04:16:47;;;;;;;;;11.33;9.33;;;;;9.81;70.23;101179.66;5077032;28;45236;-65
2023/03/29 04:19:13;;;;;;;;;8.00;8.00;;;;;9.75;70.93;101191.13;5080469;28;45325;-65
2023/03/29 04:21:38;;;;;;;;;16.00;13.33;;;;;9.67;71.09;101178.94;5079920;28;45397;-65
2023/03/29 04:24:04;;;;;;;;;9.33;7.67;;;;;9.68;71.02;101185.97;5079901;28;45494;-65
2023/03/29 04:26:30;;;;;;;;;11.00;9.00;;;;;9.57;71.67;101178.22;5080127;28;45515;-65
2023/03/29 04:28:55;;;;;;;;;9.67;8.33;;;;;9.61;71.57;101194.81;5080097;28;45437;-65
2023/03/29 04:31:21;;;;;;;;;7.33;7.00;;;;;9.72;70.80;101201.69;5079329;27;46407;-65
2023/03/29 04:33:46;;;;;;;;;9.67;8.33;;;;;9.65;71.54;101178.13;5079784;28;45386;-65
2023/03/29 04:36:14;;;;;;;;;13.00;9.00;;;;;9.72;70.44;101177.16;5079826;28;45352;-65
2023/03/29 04:38:40;;;;;;;;;12.67;11.67;;;;;9.67;71.57;101181.59;5080025;27;45384;-65
2023/03/29 04:41:07;;;;;;;;;13.00;8.00;;;;;9.60;70.61;101172.91;5079526;28;45343;-64
2023/03/29 04:43:33;;;;;;;;;10.33;8.33;;;;;9.63;70.62;101170.25;5079566;28;45511;-65
2023/03/29 04:45:58;;;;;;;;;12.33;7.33;;;;;9.71;71.21;101191.19;5079565;28;45235;-65
2023/03/29 04:48:24;;;;;;;;;9.33;9.33;;;;;9.61;71.30;101174.63;5079971;28;45404;-65
2023/03/29 04:50:51;;;;;;;;;10.33;9.00;;;;;9.64;71.15;101181.63;5079444;28;45366;-65
2023/03/29 04:53:16;;;;;;;;;13.67;10.00;;;;;9.66;72.15;101193.00;5079515;28;45411;-65
2023/03/29 04:55:42;;;;;;;;;10.67;9.00;;;;;9.57;71.54;101194.00;5079492;28;45382;-65
2023/03/29 04:58:07;;;;;;;;;16.00;12.00;;;;;9.50;72.37;101180.03;5079642;27;45568;-65
2023/03/29 05:00:33;;;;;;;;;14.33;12.33;;;;;9.56;72.67;101192.25;5079192;28;46154;-65
2023/03/29 05:02:59;;;;;;;;;12.67;9.67;;;;;9.57;72.88;101199.25;5079292;27;45718;-65
2023/03/29 05:05:24;;;;;;;;;13.33;11.00;;;;;9.42;72.89;101173.97;5079551;28;45636;-65
2023/03/29 05:07:50;;;;;;;;;10.00;8.67;;;;;9.63;72.62;101201.78;5079495;28;45304;-65
2023/03/29 05:10:15;;;;;;;;;10.00;10.00;;;;;9.54;73.15;101188.75;5078888;28;45527;-65
2023/03/29 05:12:41;;;;;;;;;8.67;7.33;;;;;9.66;71.76;101201.75;5079132;27;45591;-65
2023/03/29 05:15:08;;;;;;;;;8.33;8.00;;;;;9.60;73.07;101188.69;5079295;28;45463;-65
2023/03/29 05:17:34;;;;;;;;;12.67;10.33;;;;;9.54;72.61;101181.75;5079506;28;45327;-65
2023/03/29 05:20:00;;;;;;;;;12.00;9.67;;;;;9.53;72.98;101195.75;5078886;28;46351;-65
2023/03/29 05:22:27;;;;;;;;;11.00;11.00;;;;;9.50;73.24;101202.81;5079090;28;45382;-65
2023/03/29 05:24:52;;;;;;;;;11.33;10.33;;;;;9.49;72.75;101185.31;5079267;28;45402;-65
2023/03/29 05:27:19;;;;;;;;;8.33;8.33;;;;;9.53;72.92;101195.75;5079255;28;45449;-65
2023/03/29 05:29:45;;;;;;;;;11.33;10.33;;;;;9.47;73.60;101173.91;5078939;28;47233;-64
2023/03/29 05:32:12;;;;;;;;;13.00;11.33;;;;;9.45;73.59;101162.56;5077583;28;45332;-64
2023/03/29 05:34:38;;;;;;;;;11.33;10.33;;;;;9.56;74.29;101168.56;5078929;28;45665;-64
2023/03/29 05:37:03;;;;;;;;;12.33;10.33;;;;;9.60;73.94;101162.41;5079115;28;45449;-64
2023/03/29 05:39:28;;;;;;;;;12.33;9.67;;;;;9.54;74.09;101163.34;5079009;27;46533;-64
2023/03/29 05:41:54;;;;;;;;;13.33;11.33;;;;;9.57;74.23;101150.16;5079004;28;45365;-64
2023/03/29 05:44:20;;;;;;;;;11.33;8.33;;;;;9.60;73.20;101162.41;5079029;27;45299;-64
2023/03/29 05:46:45;;;;;;;;;14.00;11.67;;;;;9.63;73.70;101159.72;5078802;28;45408;-64
2023/03/29 05:49:11;;;;;;;;;13.00;9.67;;;;;9.69;72.73;101174.56;5078651;27;46379;-64
2023/03/29 05:51:36;;;;;;;;;11.33;11.33;;;;;9.71;73.53;101188.53;5078747;28;45437;-64
2023/03/29 05:54:02;;;;;;;;;11.67;9.33;;;;;9.64;73.05;101184.25;5078816;28;45758;-64
2023/03/29 05:56:27;;;;;;;;;13.67;13.00;;;;;9.69;74.42;101198.22;5079031;28;45356;-64
2023/03/29 05:58:55;;;;;;;;;14.33;8.00;;;;;9.66;74.13;101195.63;5078721;28;45819;-64
2023/03/29 06:01:23;;;;;;;;;12.33;12.33;;;;;9.72;73.07;101198.19;5078497;28;45951;-64
2023/03/29 06:03:52;;;;;;;;;14.67;11.33;;;;;9.68;73.50;101185.97;5078935;27;45229;-64
2023/03/29 06:06:17;;;;;;;;;10.67;10.00;;;;;9.68;73.63;101188.59;5078711;27;45542;-64
2023/03/29 06:08:43;;;;;;;;;13.33;11.33;;;;;9.67;73.04;101186.84;5078306;28;45876;-64
2023/03/29 06:11:11;;;;;;;;;31.33;29.33;;;;;9.57;74.15;101157.19;5078240;28;45335;-64
2023/03/29 06:13:37;;;;;;;;;13.00;13.00;;;;;9.67;73.64;101169.31;5078555;27;45336;-64
2023/03/29 06:16:04;;;;;;;;;11.67;11.67;;;;;9.61;74.46;101161.50;5078615;28;45355;-64
2023/03/29 06:18:31;;;;;;;;;41.00;34.00;;;;;9.75;74.01;101169.22;5078404;28;45655;-64
2023/03/29 06:20:56;;;;;;;;;20.00;18.67;;;;;9.78;74.39;101161.28;5078102;28;45458;-64
2023/03/29 06:23:22;;;;;;;;;16.00;14.00;;;;;9.81;74.40;101163.88;5078534;28;45387;-64
2023/03/29 06:25:50;;;;;;;;;16.33;14.67;;;;;9.85;73.60;101168.22;5078657;28;46006;-64
2023/03/29 06:28:16;;;;;;;;;17.67;15.00;;;;;9.88;75.08;101175.19;5078155;28;46476;-64
2023/03/29 06:30:42;;;;;;;;;14.00;11.33;;;;;9.97;73.75;101177.69;5078083;28;45293;-65
2023/03/29 06:33:09;;;;;;;;;15.33;14.67;;;;;9.98;73.68;101184.72;5078105;28;45150;-64
2023/03/29 06:35:35;;;;;;;;;16.00;10.67;;;;;10.01;74.43;101181.16;5078534;28;45337;-64
2023/03/29 06:38:02;;;;;;;;;20.67;17.00;;;;;9.97;74.87;101174.22;5077944;28;47106;-65
2023/03/29 06:40:29;;;;;;;;;12.33;12.00;;;;;10.13;74.68;101177.50;5077448;28;45365;-64
2023/03/29 06:42:58;;;;;;;;;13.00;13.00;;;;;10.09;73.58;101177.53;5078277;28;45312;-64
2023/03/29 06:45:25;;;;;;;;;19.33;17.00;;;;;10.14;73.35;101176.59;5078113;27;45431;-65
2023/03/29 06:47:51;;;;;;;;;16.67;13.00;;;;;10.09;74.20;101167.03;5077577;28;47058;-64
2023/03/29 06:50:16;;;;;;;;;14.33;11.67;;;;;10.18;74.43;101178.28;5077301;28;45418;-65
2023/03/29 06:52:43;;;;;;;;;13.00;11.67;;;;;10.23;74.48;101189.63;5077761;28;45380;-64
2023/03/29 06:55:10;;;;;;;;;18.33;16.67;;;;;10.21;74.15;101187.03;5078286;28;45425;-65
2023/03/29 06:57:36;;;;;;;;;13.33;12.33;;;;;10.23;73.66;101187.84;5077517;28;45380;-64
2023/03/29 07:00:09;;;;;;;;;13.00;11.33;;;;;10.26;74.19;101195.69;5077707;28;45238;-64
2023/03/29 07:02:34;;;;;;;;;17.00;13.00;;;;;10.24;74.28;101186.13;5077981;28;45431;-64
2023/03/29 07:05:00;;;;;;;;;25.67;22.67;;;;;10.35;75.19;101205.25;5077873;28;45418;-65
2023/03/29 07:07:32;;;;;;;;;16.00;14.00;;;;;10.44;74.71;101197.25;5077635;27;45436;-64
2023/03/29 07:09:57;;;;;;;;;16.33;13.67;;;;;10.48;74.03;101184.03;5077404;28;45367;-64
2023/03/29 07:12:22;;;;;;;;;18.67;17.00;;;;;10.49;74.00;101177.88;5077706;28;45415;-64
2023/03/29 07:14:48;;;;;;;;;31.33;25.67;;;;;10.67;73.47;101193.38;5078006;28;45316;-64
2023/03/29 07:17:13;;;;;;;;;15.00;14.33;;;;;10.76;73.38;101187.09;5077354;28;45438;-65
2023/03/29 07:19:39;;;;;;;;;16.00;15.33;;;;;10.94;72.89;101191.19;5077501;28;45373;-64
2023/03/29 07:22:04;;;;;;;;;19.67;14.33;;;;;11.02;72.32;101189.28;5077938;28;45312;-64
2023/03/29 07:24:29;;;;;;;;;17.67;14.67;;;;;11.21;72.72;101207.41;5077703;28;45308;-65
2023/03/29 07:26:57;;;;;;;;;15.33;15.00;;;;;11.36;71.93;101201.88;5077485;27;46730;-65
2023/03/29 07:29:22;;;;;;;;;13.00;11.00;;;;;11.35;72.06;101180.81;5077258;28;45230;-65
2023/03/29 07:31:48;;;;;;;;;20.00;14.67;;;;;11.42;71.92;101191.19;5077151;27;45432;-64
2023/03/29 07:34:16;;;;;;;;;20.33;16.33;;;;;11.37;72.64;101190.44;5077597;28;45368;-65
2023/03/29 07:36:43;;;;;;;;;16.33;14.67;;;;;11.47;72.38;101192.00;5077260;28;46345;-64
2023/03/29 07:39:11;;;;;;;;;21.67;19.33;;;;;11.56;72.82;101198.84;5077211;28;45456;-65
2023/03/29 07:41:37;;;;;;;;;14.33;12.00;;;;;11.48;72.22;101164.69;5077355;28;45253;-65
2023/03/29 07:44:07;;;;;;;;;11.33;8.33;;;;;11.81;71.92;101201.00;5077533;28;45260;-64
2023/03/29 07:46:34;;;;;;;;;19.33;15.67;;;;;11.81;72.13;101188.66;5077018;28;45519;-64
2023/03/29 07:48:59;;;;;;;;;13.67;11.67;;;;;11.99;71.92;101197.97;5077074;28;45317;-65
2023/03/29 07:51:25;;;;;;;;;17.00;13.67;;;;;12.10;71.29;101184.56;5077098;28;45249;-65
2023/03/29 07:53:51;;;;;;;;;15.00;14.00;;;;;12.25;71.33;101179.84;5080469;28;45400;-65
2023/03/29 07:56:16;;;;;;;;;17.33;16.00;;;;;12.53;70.84;101190.63;5080505;28;46216;-65
2023/03/29 07:58:41;;;;;;;;;14.33;14.33;;;;;12.65;70.12;101173.59;5080720;27;45487;-65
2023/03/29 08:01:07;;;;;;;;;15.67;15.00;;;;;12.84;69.76;101188.13;5080543;28;45394;-65
2023/03/29 08:03:33;;;;;;;;;18.00;13.67;;;;;12.95;69.59;101182.53;5080761;28;45508;-65
2023/03/29 08:06:01;;;;;;;;;26.00;23.00;;;;;13.16;69.22;101181.13;5080454;28;46070;-65
2023/03/29 08:08:27;;;;;;;;;18.00;15.33;;;;;13.39;68.54;101188.47;5080203;28;45372;-65
2023/03/29 08:10:52;;;;;;;;;19.00;15.00;;;;;13.43;68.64;101183.94;5080331;28;45839;-65
2023/03/29 08:13:17;;;;;;;;;11.00;11.00;;;;;13.49;68.47;101183.81;5080567;28;45314;-64
2023/03/29 08:15:46;;;;;;;;;9.67;8.00;;;;;13.56;68.00;101184.47;5080334;28;45452;-64
2023/03/29 08:18:11;;;;;;;;;14.00;13.00;;;;;13.52;68.72;101175.78;5080296;28;45431;-65
2023/03/29 08:20:37;;;;;;;;;16.00;12.67;;;;;13.68;68.38;101175.31;5080264;27;45353;-65
2023/03/29 08:23:02;;;;;;;;;17.67;15.00;;;;;13.84;68.33;101166.03;5080610;28;45264;-62
2023/03/29 08:25:27;;;;;;;;;14.67;13.67;;;;;13.86;67.94;101158.06;5080107;28;46174;-62
2023/03/29 08:27:53;;;;;;;;;16.67;14.00;;;;;13.95;67.68;101160.41;5080117;28;45290;-62
2023/03/29 08:30:18;;;;;;;;;18.33;13.33;;;;;14.23;67.81;101175.44;5080311;28;45322;-62
2023/03/29 08:32:44;;;;;;;;;19.67;14.67;;;;;14.51;66.93;101175.47;5080032;27;45394;-63
2023/03/29 08:35:09;;;;;;;;;14.67;13.00;;;;;14.87;66.19;101167.25;5079917;27;46455;-62
2023/03/29 08:37:36;;;;;;;;;17.33;14.00;;;;;15.52;64.17;101182.66;5079913;28;45286;-62
2023/03/29 08:40:03;;;;;;;;;14.67;13.00;;;;;15.59;63.66;101187.69;5080034;28;45282;-62
2023/03/29 08:42:48;;;;;;;;;16.00;13.00;;;;;15.43;63.34;101187.38;5080260;28;45793;-62
2023/03/29 08:45:19;;;;;;;;;10.00;10.00;;;;;15.38;63.64;101186.69;5079856;28;45399;-62
2023/03/29 08:48:11;;;;;;;;;11.33;11.33;;;;;15.32;63.18;101179.81;5079519;28;45358;-63
2023/03/29 08:50:46;;;;;;;;;14.00;12.00;;;;;15.28;63.53;101185.28;5079331;28;45425;-62
2023/03/29 08:53:26;;;;;;;;;17.67;13.67;;;;;15.42;63.72;101179.47;5079959;28;45238;-62
2023/03/29 08:55:54;;;;;;;;;13.33;11.33;;;;;15.44;63.73;101191.78;5079468;28;46638;-65
2023/03/29 08:58:25;;;;;;;;;18.33;13.33;;;;;15.29;63.64;101177.28;5079723;28;45367;-64
2023/03/29 09:00:53;;;;;;;;;16.00;13.33;;;;;15.36;63.67;101190.31;5079717;28;45337;-65
2023/03/29 09:03:27;;;;;;;;;13.67;12.67;;;;;15.49;64.47;101188.94;5079360;28;45352;-65
2023/03/29 09:06:14;;;;;;;;;18.67;13.67;;;;;15.64;63.85;101191.06;5079460;28;45344;-65
2023/03/29 09:08:45;;;;;;;;;12.00;12.00;;;;;15.77;63.80;101166.69;5079261;28;45387;-65
2023/03/29 09:11:11;;;;;;;;;13.33;12.00;;;;;15.97;63.48;101177.44;5079143;28;45155;-65
2023/03/29 09:14:04;;;;;;;;;11.67;10.67;;;;;16.12;62.68;101169.81;5079713;28;45322;-64
2023/03/29 09:16:36;;;;;;;;;16.00;14.00;;;;;16.19;62.81;101160.66;5079352;28;46482;-62
2023/03/29 09:19:20;;;;;;;;;16.00;11.33;;;;;16.10;63.15;101161.03;5079190;28;45455;-63
2023/03/29 09:21:58;;;;;;;;;27.67;25.33;;;;;16.16;63.18;101151.06;5079089;28;45394;-62
2023/03/29 09:24:42;;;;;;;;;11.00;10.67;;;;;16.46;62.82;101152.53;5079395;28;45317;-63
2023/03/29 09:27:26;;;;;;;;;11.33;10.00;;;;;16.87;61.21;101155.25;5079108;28;46392;-62
2023/03/29 09:30:17;;;;;;;;;9.50;6.50;;;;;17.19;60.40;101145.91;5079112;28;45861;-63
2023/03/29 09:32:51;;;;;;;;;8.67;8.67;;;;;17.38;59.34;101148.63;5079047;28;45732;-62
2023/03/29 09:35:26;;;;;;;;;9.00;9.00;;;;;17.42;59.27;101138.69;5079389;28;45329;-62
2023/03/29 09:37:53;;;;;;;;;17.00;11.00;;;;;17.21;59.48;101117.44;5078852;28;45490;-63
2023/03/29 09:40:25;;;;;;;;;10.25;7.50;;;;;17.26;59.89;101138.50;5079192;28;45399;-62
2023/03/29 09:42:53;;;;;;;;;7.00;6.50;;;;;17.17;59.95;101141.59;5079047;28;45555;-62
2023/03/29 09:45:19;;;;;;;;;10.00;8.33;;;;;16.97;60.10;101127.34;5079049;28;45474;-63
2023/03/29 09:47:54;;;;;;;;;14.25;9.00;;;;;16.80;60.47;101137.81;5078827;28;45454;-62
2023/03/29 09:50:23;;;;;;;;;9.00;8.00;;;;;16.56;60.83;101126.44;5078732;28;45399;-63
2023/03/29 09:52:49;;;;;;;;;22.67;20.00;;;;;16.34;61.32;101125.53;5078595;28;45443;-62
2023/03/29 09:55:16;;;;;;;;;9.00;9.00;;;;;16.21;62.04;101142.91;5079063;28;45353;-62
2023/03/29 09:57:42;;;;;;;;;10.33;9.33;;;;;16.09;62.56;101130.09;5078543;28;45372;-62
2023/03/29 10:00:10;;;;;;;;;9.50;8.00;;;;;16.08;63.60;101128.38;5078791;28;45404;-62
2023/03/29 10:02:35;;;;;;;;;11.67;10.33;;;;;16.42;63.43;101119.03;5078572;28;45467;-63
2023/03/29 10:05:06;;;;;;;;;7.33;6.67;;;;;17.08;62.16;101107.38;5078858;28;45443;-62
2023/03/29 10:07:47;;;;;;;;;7.00;6.75;;;;;18.16;58.48;101095.31;5078678;28;45565;-62
2023/03/29 10:10:22;;;;;;;;;8.00;6.25;;;;;19.33;55.80;101120.50;5078327;28;45183;-62
2023/03/29 10:12:55;;;;;;;;;8.67;7.67;;;;;19.58;54.00;101104.00;5078622;28;45298;-65
2023/03/29 10:15:22;;;;;;;;;11.67;7.67;;;;;19.51;54.00;101099.94;5077650;28;45543;-65
2023/03/29 10:17:47;;;;;;;;;5.75;5.75;;;;;19.41;53.79;101109.41;5078330;28;45464;-65
2023/03/29 10:20:18;;;;;;;;;6.00;6.00;;;;;19.27;52.58;101118.16;5078282;28;45227;-63
2023/03/29 10:22:54;;;;;;;;;8.50;6.50;;;;;18.92;53.03;101123.53;5078571;28;45278;-62
2023/03/29 10:25:26;;;;;;;;;9.00;6.25;;;;;18.92;53.74;101116.41;5078735;28;45419;-63
2023/03/29 10:27:54;;;;;;;;;9.33;7.00;;;;;18.95;53.47;101115.38;5078136;28;46454;-63
2023/03/29 10:30:24;;;;;;;;;6.33;5.00;;;;;18.93;53.25;101103.94;5078098;28;45340;-63
2023/03/29 10:32:56;;;;;;;;;6.00;6.00;;;;;19.08;53.53;101075.56;5078153;28;45787;-62
2023/03/29 10:35:32;;;;;;;;;5.75;5.75;;;;;19.61;52.94;101090.47;5078677;27;45366;-63
2023/03/29 10:38:02;;;;;;;;;4.67;4.67;;;;;19.93;52.27;101090.53;5077892;28;47358;-62
2023/03/29 10:40:34;;;;;;;;;6.33;6.33;;;;;20.22;51.57;101081.78;5077144;28;45336;-62
2023/03/29 10:43:11;;;;;;;;;7.00;7.00;;;;;20.30;50.86;101069.69;5078307;28;45272;-63
2023/03/29 10:45:38;;;;;;;;;8.00;7.00;;;;;20.12;50.99;101068.09;5078229;27;45308;-63
2023/03/29 10:48:05;;;;;;;;;7.50;7.25;;;;;19.97;51.46;101078.72;5077561;28;46221;-63
2023/03/29 10:50:34;;;;;;;;;5.00;5.00;;;;;19.89;51.86;101088.13;5077920;28;45326;-62
2023/03/29 10:53:01;;;;;;;;;6.00;6.00;;;;;19.62;51.76;101076.19;5077319;28;45273;-62
2023/03/29 10:55:48;;;;;;;;;6.00;6.00;;;;;19.29;52.91;101068.22;5077731;28;45536;-63
2023/03/29 10:58:22;;;;;;;;;6.00;5.67;;;;;19.27;53.58;101075.44;5077600;28;45457;-63
2023/03/29 11:00:55;;;;;;;;;9.67;6.00;;;;;19.28;54.09;101075.34;5077864;28;45470;-65
2023/03/29 11:03:26;;;;;;;;;5.00;5.00;;;;;19.18;54.42;101067.94;5077729;28;45385;-65
2023/03/29 11:06:13;;;;;;;;;6.67;6.00;;;;;19.14;54.61;101061.91;5077833;28;45461;-62
2023/03/29 11:08:56;;;;;;;;;3.00;3.00;;;;;19.17;54.81;101053.72;5077409;28;45340;-63
2023/03/29 11:11:30;;;;;;;;;5.67;5.67;;;;;19.13;54.93;101050.34;5076957;28;45331;-63
2023/03/29 11:14:14;;;;;;;;;5.50;4.75;;;;;19.23;55.15;101056.06;5077551;28;45399;-63
2023/03/29 11:17:16;;;;;;;;;10.00;6.00;;;;;19.27;55.48;101059.41;5077769;28;45313;-63
2023/03/29 11:19:57;;;;;;;;;5.50;4.00;;;;;19.05;55.79;101028.53;5077153;28;46672;-63
2023/03/29 11:22:34;;;;;;;;;7.67;7.00;;;;;19.11;55.87;101046.91;5075929;28;45459;-62
2023/03/29 11:25:12;;;;;;;;;6.33;6.33;;;;;18.94;56.82;101037.13;5077590;28;45247;-62
2023/03/29 11:27:55;;;;;;;;;8.67;8.67;;;;;18.78;57.36;101021.03;5080271;27;45562;-63
2023/03/29 11:30:44;;;;;;;;;6.50;5.00;;;;;18.93;57.72;101031.88;5080542;28;46237;-63
2023/03/29 11:33:19;;;;;;;;;6.67;6.00;;;;;19.05;57.35;101039.22;5080767;28;45392;-63